Thunder radar more information blitzortung!


avis per Pluja more information rain snow radar


Visita la nostra xarxa de llocs de meteo:

Template documentation
and downloads

And another site



Rain From: 16-11-2018 00:00 Until: 09:59 warning for: Rain Level: Yellow info button

Pagina Historial Weather Underground text

Diari Resum February 11, 2018 Unitats:  Tant    Imperial   Mètric
« Previous Dia
SegĂźent Dia »
Diari Setmana Mensual Anual Personalitzada
  Maxima: Minima: Media:
Temperatura: TemperatureC °F /  -17.8 °C 0.4 °F /  -17.6 °C 7.1 °F /  -13.8 °C
Punt de rosada: DewpointC °F /  -17.8 °C -14.2 °F /  -25.7 °C -3.4 °F /  -19.7 °C
Humitat: Humidity % 32 % 48 %
Wind Speed: WindSpeedKMH mph /  0 km/h - 4.5 mph /  7.2 km/h
RĂ fegues de vent: WindSpeedGustKMH mph /  0 km/h - -
Vent:- - South
Pression baro: PressurehPa in /  0 hPa 1011.7 in /  34256.2 hPa -
Precipitacions: 0.0 in /  0 mm    
Historical Graphs
 
 
Dades de taula per February 11, 2018
Temps Temperatura Punt de rosada Pression baro Vent Wind Speed RĂ fegues de vent Humitat Rainfall Rate (Hourly)
TemperatureC °F /  -17.8 °C DewpointC °F /  -17.8 °C PressurehPa in /  0 hPa Calm     Humidity % HourlyPrecipMM in /  0 mm
00:02 1.6 °F /  -16.9 °C -13.3 °F /  -25.2 °C 1016.8 in /  34428.8 hPa Calm     32 % 0.0 in /  0 mm
00:07 1.6 °F /  -16.9 °C -13.3 °F /  -25.2 °C 1016.8 in /  34428.8 hPa WNW 1.9 mph /  3.1 km/h   32 % 0.0 in /  0 mm
00:12 1.5 °F /  -16.9 °C -13.4 °F /  -25.2 °C 1016.8 in /  34428.8 hPa West 3.7 mph /  6 km/h 3.7 mph /  6 km/h 32 % 0.0 in /  0 mm
00:17 1.5 °F /  -16.9 °C -13.4 °F /  -25.2 °C 1016.8 in /  34428.8 hPa NE 4.2 mph /  6.8 km/h 4.2 mph /  6.8 km/h 32 % 0.0 in /  0 mm
00:22 1.4 °F /  -17 °C -13.6 °F /  -25.3 °C 1016.8 in /  34428.8 hPa NW 2.3 mph /  3.7 km/h 2.3 mph /  3.7 km/h 32 % 0.0 in /  0 mm
00:27 1.3 °F /  -17.1 °C -13.6 °F /  -25.3 °C 1016.8 in /  34428.8 hPa SW 4.2 mph /  6.8 km/h 4.2 mph /  6.8 km/h 32 % 0.0 in /  0 mm
00:32 1.4 °F /  -17 °C -13.6 °F /  -25.3 °C 1016.8 in /  34428.8 hPa West 3.7 mph /  6 km/h 3.7 mph /  6 km/h 32 % 0.0 in /  0 mm
00:37 1.1 °F /  -17.2 °C -13.4 °F /  -25.2 °C 1016.8 in /  34428.8 hPa SW 3.7 mph /  6 km/h 3.7 mph /  6 km/h 33 % 0.0 in /  0 mm
00:42 0.7 °F /  -17.4 °C -14.2 °F /  -25.7 °C 1016.8 in /  34428.8 hPa SW 5.6 mph /  9 km/h 5.6 mph /  9 km/h 32 % 0.0 in /  0 mm
00:47 0.6 °F /  -17.4 °C -14.2 °F /  -25.7 °C 1016.8 in /  34428.8 hPa SW 1.9 mph /  3.1 km/h 1.9 mph /  3.1 km/h 32 % 0.0 in /  0 mm
00:52 0.6 °F /  -17.4 °C -13.8 °F /  -25.4 °C 1016.8 in /  34428.8 hPa NE 3.7 mph /  6 km/h 3.7 mph /  6 km/h 33 % 0.0 in /  0 mm
00:57 0.6 °F /  -17.4 °C -13.8 °F /  -25.4 °C 1016.8 in /  34428.8 hPa Calm     33 % 0.0 in /  0 mm
01:02 0.7 °F /  -17.4 °C -13.8 °F /  -25.4 °C 1016.8 in /  34428.8 hPa Calm     33 % 0.0 in /  0 mm
01:07 0.8 °F /  -17.3 °C -13.7 °F /  -25.4 °C 1016.8 in /  34428.8 hPa Calm     33 % 0.0 in /  0 mm
01:12 0.9 °F /  -17.3 °C -13.6 °F /  -25.3 °C 1015.8 in /  34395 hPa NNW 3.2 mph /  5.1 km/h 3.2 mph /  5.1 km/h 33 % 0.0 in /  0 mm
01:17 1.0 °F /  -17.2 °C -13.5 °F /  -25.3 °C 1015.8 in /  34395 hPa Calm     33 % 0.0 in /  0 mm
01:22 1.0 °F /  -17.2 °C -13.5 °F /  -25.3 °C 1015.8 in /  34395 hPa Calm     33 % 0.0 in /  0 mm
01:27 1.1 °F /  -17.2 °C -13.4 °F /  -25.2 °C 1016.8 in /  34428.8 hPa NW 3.7 mph /  6 km/h 3.7 mph /  6 km/h 33 % 0.0 in /  0 mm
01:32 1.0 °F /  -17.2 °C -13.5 °F /  -25.3 °C 1016.8 in /  34428.8 hPa WSW 2.3 mph /  3.7 km/h 2.6 mph /  4.2 km/h 33 % 0.0 in /  0 mm
01:37 1.1 °F /  -17.2 °C -13.4 °F /  -25.2 °C 1016.8 in /  34428.8 hPa South 3.7 mph /  6 km/h 3.7 mph /  6 km/h 33 % 0.0 in /  0 mm
01:42 1.4 °F /  -17 °C -13.2 °F /  -25.1 °C 1016.8 in /  34428.8 hPa NE 1.9 mph /  3.1 km/h   33 % 0.0 in /  0 mm
01:47 1.3 °F /  -17.1 °C -13.2 °F /  -25.1 °C 1016.8 in /  34428.8 hPa SW 3.7 mph /  6 km/h 3.7 mph /  6 km/h 33 % 0.0 in /  0 mm
01:52 0.9 °F /  -17.3 °C -13.6 °F /  -25.3 °C 1016.8 in /  34428.8 hPa SW 3.7 mph /  6 km/h 3.7 mph /  6 km/h 33 % 0.0 in /  0 mm
01:57 0.7 °F /  -17.4 °C -13.8 °F /  -25.4 °C 1015.8 in /  34395 hPa WSW 3.7 mph /  6 km/h 3.7 mph /  6 km/h 33 % 0.0 in /  0 mm
02:02 0.9 °F /  -17.3 °C -13.6 °F /  -25.3 °C 1015.8 in /  34395 hPa West 3.9 mph /  6.3 km/h 3.9 mph /  6.3 km/h 33 % 0.0 in /  0 mm
02:07 1.0 °F /  -17.2 °C -13.5 °F /  -25.3 °C 1015.8 in /  34395 hPa West 3.7 mph /  6 km/h 3.7 mph /  6 km/h 33 % 0.0 in /  0 mm
02:12 1.0 °F /  -17.2 °C -13.5 °F /  -25.3 °C 1015.8 in /  34395 hPa West 2.6 mph /  4.2 km/h 2.6 mph /  4.2 km/h 33 % 0.0 in /  0 mm
02:17 1.2 °F /  -17.1 °C -13.3 °F /  -25.2 °C 1015.8 in /  34395 hPa WSW 1.9 mph /  3.1 km/h 1.9 mph /  3.1 km/h 33 % 0.0 in /  0 mm
02:22 1.2 °F /  -17.1 °C -13.3 °F /  -25.2 °C 1015.8 in /  34395 hPa Calm     33 % 0.0 in /  0 mm
02:27 1.2 °F /  -17.1 °C -13.3 °F /  -25.2 °C 1015.8 in /  34395 hPa Calm     33 % 0.0 in /  0 mm
02:32 1.2 °F /  -17.1 °C -13.3 °F /  -25.2 °C 1015.8 in /  34395 hPa WSW 1.9 mph /  3.1 km/h 1.9 mph /  3.1 km/h 33 % 0.0 in /  0 mm
02:37 1.4 °F /  -17 °C -13.2 °F /  -25.1 °C 1015.8 in /  34395 hPa NW 3.7 mph /  6 km/h 3.7 mph /  6 km/h 33 % 0.0 in /  0 mm
02:42 1.6 °F /  -16.9 °C -13.0 °F /  -25 °C 1015.8 in /  34395 hPa North 3.7 mph /  6 km/h 3.7 mph /  6 km/h 33 % 0.0 in /  0 mm
02:47 1.6 °F /  -16.9 °C -13.0 °F /  -25 °C 1015.8 in /  34395 hPa NNE 1.9 mph /  3.1 km/h 1.9 mph /  3.1 km/h 33 % 0.0 in /  0 mm
02:52 1.6 °F /  -16.9 °C -13.0 °F /  -25 °C 1015.8 in /  34395 hPa West 3.7 mph /  6 km/h 3.7 mph /  6 km/h 33 % 0.0 in /  0 mm
02:57 1.4 °F /  -17 °C -13.2 °F /  -25.1 °C 1015.8 in /  34395 hPa Calm     33 % 0.0 in /  0 mm
03:02 1.4 °F /  -17 °C -13.2 °F /  -25.1 °C 1015.8 in /  34395 hPa NNW 3.7 mph /  6 km/h 3.7 mph /  6 km/h 33 % 0.0 in /  0 mm
03:07 1.2 °F /  -17.1 °C -13.3 °F /  -25.2 °C 1015.8 in /  34395 hPa West 3.9 mph /  6.3 km/h 3.9 mph /  6.3 km/h 33 % 0.0 in /  0 mm
03:12 1.0 °F /  -17.2 °C -13.5 °F /  -25.3 °C 1015.8 in /  34395 hPa West 3.7 mph /  6 km/h 3.7 mph /  6 km/h 33 % 0.0 in /  0 mm
03:17 1.2 °F /  -17.1 °C -13.3 °F /  -25.2 °C 1015.8 in /  34395 hPa SW 3.7 mph /  6 km/h 3.7 mph /  6 km/h 33 % 0.0 in /  0 mm
03:22 1.1 °F /  -17.2 °C -13.4 °F /  -25.2 °C 1015.8 in /  34395 hPa Calm     33 % 0.0 in /  0 mm
03:27 1.0 °F /  -17.2 °C -13.5 °F /  -25.3 °C 1014.8 in /  34361.1 hPa Calm     33 % 0.0 in /  0 mm
03:32 1.0 °F /  -17.2 °C -13.5 °F /  -25.3 °C 1014.8 in /  34361.1 hPa NNW 2.6 mph /  4.2 km/h 2.6 mph /  4.2 km/h 33 % 0.0 in /  0 mm
03:37 1.0 °F /  -17.2 °C -13.5 °F /  -25.3 °C 1014.8 in /  34361.1 hPa NNW 3.7 mph /  6 km/h 3.7 mph /  6 km/h 33 % 0.0 in /  0 mm
03:42 1.0 °F /  -17.2 °C -13.5 °F /  -25.3 °C 1014.8 in /  34361.1 hPa NNW 1.9 mph /  3.1 km/h   33 % 0.0 in /  0 mm
03:47 0.9 °F /  -17.3 °C -13.6 °F /  -25.3 °C 1014.8 in /  34361.1 hPa ENE 2.6 mph /  4.2 km/h   33 % 0.0 in /  0 mm
03:52 1.0 °F /  -17.2 °C -13.5 °F /  -25.3 °C 1014.8 in /  34361.1 hPa ENE 3.7 mph /  6 km/h 3.7 mph /  6 km/h 33 % 0.0 in /  0 mm
03:57 1.0 °F /  -17.2 °C -13.5 °F /  -25.3 °C 1015.8 in /  34395 hPa North 2.3 mph /  3.7 km/h 2.3 mph /  3.7 km/h 33 % 0.0 in /  0 mm
04:02 0.9 °F /  -17.3 °C -13.6 °F /  -25.3 °C 1015.8 in /  34395 hPa NE 3.7 mph /  6 km/h 3.7 mph /  6 km/h 33 % 0.0 in /  0 mm
04:07 0.9 °F /  -17.3 °C -13.6 °F /  -25.3 °C 1015.8 in /  34395 hPa NW 3.7 mph /  6 km/h 3.7 mph /  6 km/h 33 % 0.0 in /  0 mm
04:12 0.9 °F /  -17.3 °C -13.6 °F /  -25.3 °C 1015.8 in /  34395 hPa NE 3.7 mph /  6 km/h 3.7 mph /  6 km/h 33 % 0.0 in /  0 mm
04:17 0.9 °F /  -17.3 °C -13.6 °F /  -25.3 °C 1015.8 in /  34395 hPa NW 1.9 mph /  3.1 km/h   33 % 0.0 in /  0 mm
04:22 0.8 °F /  -17.3 °C -13.7 °F /  -25.4 °C 1015.8 in /  34395 hPa North 1.9 mph /  3.1 km/h   33 % 0.0 in /  0 mm
04:27 0.9 °F /  -17.3 °C -13.6 °F /  -25.3 °C 1015.8 in /  34395 hPa NNE 5.6 mph /  9 km/h 5.6 mph /  9 km/h 33 % 0.0 in /  0 mm
04:32 1.0 °F /  -17.2 °C -13.5 °F /  -25.3 °C 1015.8 in /  34395 hPa NNE 3.7 mph /  6 km/h 3.7 mph /  6 km/h 33 % 0.0 in /  0 mm
04:37 0.8 °F /  -17.3 °C -13.3 °F /  -25.2 °C 1015.8 in /  34395 hPa SW 3.5 mph /  5.6 km/h 3.5 mph /  5.6 km/h 34 % 0.0 in /  0 mm
04:42 0.4 °F /  -17.6 °C -13.7 °F /  -25.4 °C 1015.8 in /  34395 hPa WSW 1.9 mph /  3.1 km/h   34 % 0.0 in /  0 mm
04:47 0.5 °F /  -17.5 °C -13.6 °F /  -25.3 °C 1015.8 in /  34395 hPa NNW 3.7 mph /  6 km/h 3.7 mph /  6 km/h 34 % 0.0 in /  0 mm
04:52 0.5 °F /  -17.5 °C -13.6 °F /  -25.3 °C 1015.8 in /  34395 hPa Calm     34 % 0.0 in /  0 mm
04:57 0.7 °F /  -17.4 °C -13.4 °F /  -25.2 °C 1015.8 in /  34395 hPa NW 3.7 mph /  6 km/h 3.7 mph /  6 km/h 34 % 0.0 in /  0 mm
05:02 0.8 °F /  -17.3 °C -13.3 °F /  -25.2 °C 1015.8 in /  34395 hPa NNE 5.6 mph /  9 km/h 5.6 mph /  9 km/h 34 % 0.0 in /  0 mm
05:07 0.8 °F /  -17.3 °C -13.3 °F /  -25.2 °C 1015.8 in /  34395 hPa NNE 5.6 mph /  9 km/h 5.6 mph /  9 km/h 34 % 0.0 in /  0 mm
05:12 0.8 °F /  -17.3 °C -13.3 °F /  -25.2 °C 1015.8 in /  34395 hPa Calm     34 % 0.0 in /  0 mm
05:17 0.7 °F /  -17.4 °C -13.4 °F /  -25.2 °C 1015.8 in /  34395 hPa North 3.7 mph /  6 km/h 3.7 mph /  6 km/h 34 % 0.0 in /  0 mm
05:22 0.6 °F /  -17.4 °C -13.5 °F /  -25.3 °C 1015.8 in /  34395 hPa SE 3.7 mph /  6 km/h 3.7 mph /  6 km/h 34 % 0.0 in /  0 mm
05:27 0.6 °F /  -17.4 °C -13.1 °F /  -25.1 °C 1015.8 in /  34395 hPa NNE 1.9 mph /  3.1 km/h   35 % 0.0 in /  0 mm
05:32 0.6 °F /  -17.4 °C -13.1 °F /  -25.1 °C 1015.8 in /  34395 hPa NNW 1.9 mph /  3.1 km/h   35 % 0.0 in /  0 mm
05:37 0.5 °F /  -17.5 °C -13.2 °F /  -25.1 °C 1015.8 in /  34395 hPa NW 1.9 mph /  3.1 km/h 1.9 mph /  3.1 km/h 35 % 0.0 in /  0 mm
05:42 0.6 °F /  -17.4 °C -12.8 °F /  -24.9 °C 1015.8 in /  34395 hPa NNE 3.2 mph /  5.1 km/h   36 % 0.0 in /  0 mm
05:47 0.8 °F /  -17.3 °C -12.6 °F /  -24.8 °C 1015.8 in /  34395 hPa WNW 3.7 mph /  6 km/h   36 % 0.0 in /  0 mm
05:52 0.9 °F /  -17.3 °C -12.2 °F /  -24.6 °C 1015.8 in /  34395 hPa NNW 3.9 mph /  6.3 km/h   37 % 0.0 in /  0 mm
05:57 0.8 °F /  -17.3 °C -12.3 °F /  -24.6 °C 1015.8 in /  34395 hPa WNW 3.7 mph /  6 km/h 3.7 mph /  6 km/h 37 % 0.0 in /  0 mm
06:02 0.8 °F /  -17.3 °C -12.3 °F /  -24.6 °C 1015.8 in /  34395 hPa SW 5.6 mph /  9 km/h 5.6 mph /  9 km/h 37 % 0.0 in /  0 mm
06:07 0.8 °F /  -17.3 °C -11.9 °F /  -24.4 °C 1015.8 in /  34395 hPa NNW 9.3 mph /  15 km/h 9.3 mph /  15 km/h 38 % 0.0 in /  0 mm
06:12 0.9 °F /  -17.3 °C -11.5 °F /  -24.2 °C 1015.8 in /  34395 hPa WNW 3.2 mph /  5.1 km/h 3.2 mph /  5.1 km/h 39 % 0.0 in /  0 mm
06:17 0.8 °F /  -17.3 °C -11.6 °F /  -24.2 °C 1015.8 in /  34395 hPa ENE 3.7 mph /  6 km/h 3.7 mph /  6 km/h 39 % 0.0 in /  0 mm
06:22 0.8 °F /  -17.3 °C -11.3 °F /  -24.1 °C 1015.8 in /  34395 hPa ENE 5.6 mph /  9 km/h 5.6 mph /  9 km/h 40 % 0.0 in /  0 mm
06:27 0.7 °F /  -17.4 °C -11.4 °F /  -24.1 °C 1015.8 in /  34395 hPa West 3.2 mph /  5.1 km/h   40 % 0.0 in /  0 mm
06:32 0.8 °F /  -17.3 °C -11.3 °F /  -24.1 °C 1015.8 in /  34395 hPa NE 4.2 mph /  6.8 km/h 4.2 mph /  6.8 km/h 40 % 0.0 in /  0 mm
06:37 0.8 °F /  -17.3 °C -11.0 °F /  -23.9 °C 1015.8 in /  34395 hPa NNW 1.9 mph /  3.1 km/h   41 % 0.0 in /  0 mm
06:42 0.8 °F /  -17.3 °C -11.0 °F /  -23.9 °C 1014.8 in /  34361.1 hPa North 5.6 mph /  9 km/h 5.6 mph /  9 km/h 41 % 0.0 in /  0 mm
06:47 0.9 °F /  -17.3 °C -10.9 °F /  -23.8 °C 1014.8 in /  34361.1 hPa East 2.3 mph /  3.7 km/h 2.3 mph /  3.7 km/h 41 % 0.0 in /  0 mm
06:52 0.9 °F /  -17.3 °C -10.6 °F /  -23.7 °C 1014.8 in /  34361.1 hPa NNE 7.4 mph /  11.9 km/h 7.4 mph /  11.9 km/h 42 % 0.0 in /  0 mm
06:57 1.0 °F /  -17.2 °C -10.5 °F /  -23.6 °C 1015.8 in /  34395 hPa NNE 5.6 mph /  9 km/h 5.6 mph /  9 km/h 42 % 0.0 in /  0 mm
06:58 1.0 °F /  -17.2 °C -10.5 °F /  -23.6 °C 1015.8 in /  34395 hPa NNE 5.6 mph /  9 km/h 5.6 mph /  9 km/h 42 % 0.0 in /  0 mm
07:03 0.8 °F /  -17.3 °C -10.4 °F /  -23.6 °C 1015.8 in /  34395 hPa NNW 1.9 mph /  3.1 km/h 1.9 mph /  3.1 km/h 43 % 0.0 in /  0 mm
07:08 0.8 °F /  -17.3 °C -10.4 °F /  -23.6 °C 1015.8 in /  34395 hPa NNE 3.7 mph /  6 km/h 3.7 mph /  6 km/h 43 % 0.0 in /  0 mm
07:13 0.9 °F /  -17.3 °C -10.3 °F /  -23.5 °C 1015.8 in /  34395 hPa NE 7.4 mph /  11.9 km/h 7.4 mph /  11.9 km/h 43 % 0.0 in /  0 mm
07:18 1.0 °F /  -17.2 °C -9.9 °F /  -23.3 °C 1015.8 in /  34395 hPa NNW 3.7 mph /  6 km/h 3.7 mph /  6 km/h 44 % 0.0 in /  0 mm
07:23 1.0 °F /  -17.2 °C -9.9 °F /  -23.3 °C 1015.8 in /  34395 hPa WNW 5.6 mph /  9 km/h 5.6 mph /  9 km/h 44 % 0.0 in /  0 mm
07:28 1.1 °F /  -17.2 °C -9.8 °F /  -23.2 °C 1016.8 in /  34428.8 hPa SSW 3.7 mph /  6 km/h 3.7 mph /  6 km/h 44 % 0.0 in /  0 mm
07:33 1.1 °F /  -17.2 °C -9.6 °F /  -23.1 °C 1016.8 in /  34428.8 hPa NNW 1.9 mph /  3.1 km/h   45 % 0.0 in /  0 mm
07:38 1.0 °F /  -17.2 °C -9.6 °F /  -23.1 °C 1016.8 in /  34428.8 hPa WNW 3.5 mph /  5.6 km/h 3.5 mph /  5.6 km/h 45 % 0.0 in /  0 mm
07:43 0.9 °F /  -17.3 °C -9.7 °F /  -23.2 °C 1015.8 in /  34395 hPa West 3.7 mph /  6 km/h 3.7 mph /  6 km/h 45 % 0.0 in /  0 mm
07:48 0.9 °F /  -17.3 °C -9.7 °F /  -23.2 °C 1015.8 in /  34395 hPa NE 3.7 mph /  6 km/h   45 % 0.0 in /  0 mm
07:53 0.8 °F /  -17.3 °C -9.6 °F /  -23.1 °C 1015.8 in /  34395 hPa NE 4.2 mph /  6.8 km/h 4.2 mph /  6.8 km/h 46 % 0.0 in /  0 mm
07:58 0.8 °F /  -17.3 °C -9.6 °F /  -23.1 °C 1016.8 in /  34428.8 hPa NNE 5.6 mph /  9 km/h 5.6 mph /  9 km/h 46 % 0.0 in /  0 mm
08:03 0.8 °F /  -17.3 °C -9.6 °F /  -23.1 °C 1016.8 in /  34428.8 hPa WNW 3.7 mph /  6 km/h 3.7 mph /  6 km/h 46 % 0.0 in /  0 mm
08:08 0.8 °F /  -17.3 °C -9.3 °F /  -22.9 °C 1016.8 in /  34428.8 hPa ENE 1.9 mph /  3.1 km/h 1.9 mph /  3.1 km/h 47 % 0.0 in /  0 mm
08:13 1.1 °F /  -17.2 °C -9.0 °F /  -22.8 °C 1016.8 in /  34428.8 hPa NNE 3.9 mph /  6.3 km/h 3.9 mph /  6.3 km/h 47 % 0.0 in /  0 mm
08:18 1.1 °F /  -17.2 °C -9.3 °F /  -22.9 °C 1016.8 in /  34428.8 hPa SW 3.7 mph /  6 km/h 3.7 mph /  6 km/h 46 % 0.0 in /  0 mm
08:23 1.0 °F /  -17.2 °C -9.3 °F /  -22.9 °C 1016.8 in /  34428.8 hPa WSW 3.7 mph /  6 km/h 3.7 mph /  6 km/h 46 % 0.0 in /  0 mm
08:28 1.3 °F /  -17.1 °C -8.8 °F /  -22.7 °C 1015.8 in /  34395 hPa North 3.7 mph /  6 km/h 3.7 mph /  6 km/h 47 % 0.0 in /  0 mm
08:33 2.0 °F /  -16.7 °C -7.9 °F /  -22.2 °C 1015.8 in /  34395 hPa NNE 1.9 mph /  3.1 km/h 1.9 mph /  3.1 km/h 48 % 0.0 in /  0 mm
08:38 2.6 °F /  -16.3 °C -7.3 °F /  -21.8 °C 1015.8 in /  34395 hPa ESE 3.7 mph /  6 km/h 3.7 mph /  6 km/h 48 % 0.0 in /  0 mm
08:43 2.5 °F /  -16.4 °C -7.4 °F /  -21.9 °C 1016.8 in /  34428.8 hPa East 3.9 mph /  6.3 km/h 3.9 mph /  6.3 km/h 48 % 0.0 in /  0 mm
08:48 2.3 °F /  -16.5 °C -7.6 °F /  -22 °C 1016.8 in /  34428.8 hPa WSW 1.9 mph /  3.1 km/h 1.9 mph /  3.1 km/h 48 % 0.0 in /  0 mm
08:53 2.4 °F /  -16.4 °C -7.5 °F /  -21.9 °C 1016.8 in /  34428.8 hPa Calm     48 % 0.0 in /  0 mm
08:58 2.4 °F /  -16.4 °C -7.5 °F /  -21.9 °C 1016.8 in /  34428.8 hPa Calm     48 % 0.0 in /  0 mm
09:03 2.4 °F /  -16.4 °C -7.5 °F /  -21.9 °C 1016.8 in /  34428.8 hPa Calm     48 % 0.0 in /  0 mm
09:08 2.3 °F /  -16.5 °C -7.6 °F /  -22 °C 1016.8 in /  34428.8 hPa West 3.7 mph /  6 km/h 3.7 mph /  6 km/h 48 % 0.0 in /  0 mm
09:13 2.2 °F /  -16.6 °C -7.4 °F /  -21.9 °C 1016.8 in /  34428.8 hPa Calm     49 % 0.0 in /  0 mm
09:18 2.4 °F /  -16.4 °C -7.2 °F /  -21.8 °C 1016.8 in /  34428.8 hPa Calm     49 % 0.0 in /  0 mm
09:23 2.9 °F /  -16.2 °C -6.5 °F /  -21.4 °C 1016.8 in /  34428.8 hPa ENE 3.7 mph /  6 km/h   50 % 0.0 in /  0 mm
09:28 3.2 °F /  -16 °C -6.5 °F /  -21.4 °C 1016.8 in /  34428.8 hPa Calm     49 % 0.0 in /  0 mm
09:33 3.6 °F /  -15.8 °C -6.1 °F /  -21.2 °C 1016.8 in /  34428.8 hPa NE 3.7 mph /  6 km/h 3.7 mph /  6 km/h 49 % 0.0 in /  0 mm
09:38 3.8 °F /  -15.7 °C -5.9 °F /  -21.1 °C 1016.8 in /  34428.8 hPa NE 1.9 mph /  3.1 km/h 1.9 mph /  3.1 km/h 49 % 0.0 in /  0 mm
09:43 3.7 °F /  -15.7 °C -6.1 °F /  -21.2 °C 1017.8 in /  34462.7 hPa NNE 3.9 mph /  6.3 km/h 3.9 mph /  6.3 km/h 49 % 0.0 in /  0 mm
09:48 3.6 °F /  -15.8 °C -6.1 °F /  -21.2 °C 1017.8 in /  34462.7 hPa NE 7.4 mph /  11.9 km/h 7.4 mph /  11.9 km/h 49 % 0.0 in /  0 mm
09:53 3.6 °F /  -15.8 °C -6.1 °F /  -21.2 °C 1017.8 in /  34462.7 hPa NNE 4.7 mph /  7.6 km/h 4.7 mph /  7.6 km/h 49 % 0.0 in /  0 mm
09:58 3.5 °F /  -15.8 °C -6.2 °F /  -21.2 °C 1016.8 in /  34428.8 hPa NNE 9.3 mph /  15 km/h 9.3 mph /  15 km/h 49 % 0.0 in /  0 mm
10:03 3.5 °F /  -15.8 °C -6.2 °F /  -21.2 °C 1016.8 in /  34428.8 hPa NNE 3.2 mph /  5.1 km/h   49 % 0.0 in /  0 mm
10:08 3.6 °F /  -15.8 °C -6.1 °F /  -21.2 °C 1016.8 in /  34428.8 hPa NW 3.7 mph /  6 km/h 3.7 mph /  6 km/h 49 % 0.0 in /  0 mm
10:13 4.1 °F /  -15.5 °C -5.7 °F /  -20.9 °C 1016.8 in /  34428.8 hPa NNW 4.2 mph /  6.8 km/h 4.2 mph /  6.8 km/h 49 % 0.0 in /  0 mm
10:18 4.5 °F /  -15.3 °C -5.3 °F /  -20.7 °C 1016.8 in /  34428.8 hPa NW 5.6 mph /  9 km/h 5.6 mph /  9 km/h 49 % 0.0 in /  0 mm
10:23 5.1 °F /  -14.9 °C -4.8 °F /  -20.4 °C 1016.8 in /  34428.8 hPa ENE 2.6 mph /  4.2 km/h 2.6 mph /  4.2 km/h 49 % 0.0 in /  0 mm
10:28 5.2 °F /  -14.9 °C -4.7 °F /  -20.4 °C 1017.8 in /  34462.7 hPa WNW 7.4 mph /  11.9 km/h 7.4 mph /  11.9 km/h 49 % 0.0 in /  0 mm
10:33 5.3 °F /  -14.8 °C -4.6 °F /  -20.3 °C 1017.8 in /  34462.7 hPa ENE 3.7 mph /  6 km/h 3.7 mph /  6 km/h 49 % 0.0 in /  0 mm
10:38 5.7 °F /  -14.6 °C -4.2 °F /  -20.1 °C 1017.8 in /  34462.7 hPa NNE 7.4 mph /  11.9 km/h 7.4 mph /  11.9 km/h 49 % 0.0 in /  0 mm
10:43 5.6 °F /  -14.7 °C -4.6 °F /  -20.3 °C 1017.8 in /  34462.7 hPa NE 7.4 mph /  11.9 km/h 7.4 mph /  11.9 km/h 48 % 0.0 in /  0 mm
10:48 5.7 °F /  -14.6 °C -4.5 °F /  -20.3 °C 1017.8 in /  34462.7 hPa NNE 5.6 mph /  9 km/h 5.6 mph /  9 km/h 48 % 0.0 in /  0 mm
10:53 6.1 °F /  -14.4 °C -3.8 °F /  -19.9 °C 1017.8 in /  34462.7 hPa NNE 4.2 mph /  6.8 km/h 4.2 mph /  6.8 km/h 49 % 0.0 in /  0 mm
10:58 6.1 °F /  -14.4 °C -4.1 °F /  -20.1 °C 1017.8 in /  34462.7 hPa East 7.4 mph /  11.9 km/h 7.4 mph /  11.9 km/h 48 % 0.0 in /  0 mm
11:03 6.3 °F /  -14.3 °C -3.9 °F /  -19.9 °C 1017.8 in /  34462.7 hPa NNE 5.6 mph /  9 km/h 5.6 mph /  9 km/h 48 % 0.0 in /  0 mm
11:08 6.4 °F /  -14.2 °C -3.8 °F /  -19.9 °C 1017.8 in /  34462.7 hPa NE 7.4 mph /  11.9 km/h 7.4 mph /  11.9 km/h 48 % 0.0 in /  0 mm
11:13 6.5 °F /  -14.2 °C -3.7 °F /  -19.8 °C 1017.8 in /  34462.7 hPa NNE 6.9 mph /  11.1 km/h 6.9 mph /  11.1 km/h 48 % 0.0 in /  0 mm
11:18 6.6 °F /  -14.1 °C -3.7 °F /  -19.8 °C 1017.8 in /  34462.7 hPa ENE 5.6 mph /  9 km/h 5.6 mph /  9 km/h 48 % 0.0 in /  0 mm
11:23 6.9 °F /  -13.9 °C -3.4 °F /  -19.7 °C 1017.8 in /  34462.7 hPa NNE 7.6 mph /  12.2 km/h 7.6 mph /  12.2 km/h 48 % 0.0 in /  0 mm
11:28 7.1 °F /  -13.8 °C -3.2 °F /  -19.6 °C 1016.8 in /  34428.8 hPa NNE 3.7 mph /  6 km/h 3.7 mph /  6 km/h 48 % 0.0 in /  0 mm
11:33 7.1 °F /  -13.8 °C -3.2 °F /  -19.6 °C 1016.8 in /  34428.8 hPa NE 5.6 mph /  9 km/h 5.6 mph /  9 km/h 48 % 0.0 in /  0 mm
11:38 7.2 °F /  -13.8 °C -3.4 °F /  -19.7 °C 1016.8 in /  34428.8 hPa East 5.6 mph /  9 km/h 5.6 mph /  9 km/h 47 % 0.0 in /  0 mm
11:43 7.6 °F /  -13.6 °C -2.7 °F /  -19.3 °C 1016.8 in /  34428.8 hPa NE 5.8 mph /  9.3 km/h 5.8 mph /  9.3 km/h 48 % 0.0 in /  0 mm
11:48 7.8 °F /  -13.4 °C -2.8 °F /  -19.3 °C 1016.8 in /  34428.8 hPa ENE 5.6 mph /  9 km/h 5.6 mph /  9 km/h 47 % 0.0 in /  0 mm
11:53 8.1 °F /  -13.3 °C -2.6 °F /  -19.2 °C 1016.8 in /  34428.8 hPa NNE 4.2 mph /  6.8 km/h 4.2 mph /  6.8 km/h 47 % 0.0 in /  0 mm
11:58 8.2 °F /  -13.2 °C -2.4 °F /  -19.1 °C 1016.8 in /  34428.8 hPa ESE 5.6 mph /  9 km/h 5.6 mph /  9 km/h 47 % 0.0 in /  0 mm
12:03 8.3 °F /  -13.2 °C -2.4 °F /  -19.1 °C 1016.8 in /  34428.8 hPa NNE 6.1 mph /  9.8 km/h 6.1 mph /  9.8 km/h 47 % 0.0 in /  0 mm
12:08 8.2 °F /  -13.2 °C -2.4 °F /  -19.1 °C 1016.8 in /  34428.8 hPa NE 5.6 mph /  9 km/h 5.6 mph /  9 km/h 47 % 0.0 in /  0 mm
12:13 8.5 °F /  -13.1 °C -2.2 °F /  -19 °C 1015.8 in /  34395 hPa NNE 5.6 mph /  9 km/h 5.6 mph /  9 km/h 47 % 0.0 in /  0 mm
12:18 8.7 °F /  -12.9 °C -2.0 °F /  -18.9 °C 1015.8 in /  34395 hPa NNE 5.6 mph /  9 km/h 5.6 mph /  9 km/h 47 % 0.0 in /  0 mm
12:23 9.1 °F /  -12.7 °C -1.6 °F /  -18.7 °C 1015.8 in /  34395 hPa East 3.7 mph /  6 km/h 3.7 mph /  6 km/h 47 % 0.0 in /  0 mm
12:28 9.3 °F /  -12.6 °C -1.4 °F /  -18.6 °C 1015.8 in /  34395 hPa ENE 6.1 mph /  9.8 km/h 6.1 mph /  9.8 km/h 47 % 0.0 in /  0 mm
12:33 9.5 °F /  -12.5 °C -1.3 °F /  -18.5 °C 1015.8 in /  34395 hPa ENE 4.2 mph /  6.8 km/h 4.2 mph /  6.8 km/h 47 % 0.0 in /  0 mm
12:38 9.4 °F /  -12.6 °C -1.3 °F /  -18.5 °C 1015.8 in /  34395 hPa East 7.4 mph /  11.9 km/h 7.4 mph /  11.9 km/h 47 % 0.0 in /  0 mm
12:43 9.7 °F /  -12.4 °C -1.1 °F /  -18.4 °C 1015.8 in /  34395 hPa NE 7.4 mph /  11.9 km/h 7.4 mph /  11.9 km/h 47 % 0.0 in /  0 mm
12:48 10.0 °F /  -12.2 °C -0.8 °F /  -18.2 °C 1015.8 in /  34395 hPa ENE 5.6 mph /  9 km/h 5.6 mph /  9 km/h 47 % 0.0 in /  0 mm
12:53 10.3 °F /  -12.1 °C -0.6 °F /  -18.1 °C 1015.8 in /  34395 hPa ENE 5.6 mph /  9 km/h 5.6 mph /  9 km/h 47 % 0.0 in /  0 mm
12:58 10.4 °F /  -12 °C -0.4 °F /  -18 °C 1015.8 in /  34395 hPa NE 7.4 mph /  11.9 km/h 7.4 mph /  11.9 km/h 47 % 0.0 in /  0 mm
13:03 10.9 °F /  -11.7 °C 0.0 °F /  -17.8 °C 1015.8 in /  34395 hPa NNE 6.1 mph /  9.8 km/h 6.1 mph /  9.8 km/h 47 % 0.0 in /  0 mm
13:08 10.6 °F /  -11.9 °C -0.3 °F /  -17.9 °C 1015.8 in /  34395 hPa NE 7.4 mph /  11.9 km/h 7.4 mph /  11.9 km/h 47 % 0.0 in /  0 mm
13:13 10.9 °F /  -11.7 °C 0.0 °F /  -17.8 °C 1015.8 in /  34395 hPa ESE 9.3 mph /  15 km/h 9.3 mph /  15 km/h 47 % 0.0 in /  0 mm
13:18 10.9 °F /  -11.7 °C 0.0 °F /  -17.8 °C 1015.8 in /  34395 hPa ENE 7.4 mph /  11.9 km/h 7.4 mph /  11.9 km/h 47 % 0.0 in /  0 mm
13:23 11.2 °F /  -11.6 °C 0.3 °F /  -17.6 °C 1015.8 in /  34395 hPa WSW 4.2 mph /  6.8 km/h 4.2 mph /  6.8 km/h 47 % 0.0 in /  0 mm
13:28 11.4 °F /  -11.4 °C 0.5 °F /  -17.5 °C 1014.8 in /  34361.1 hPa NNE 1.9 mph /  3.1 km/h 1.9 mph /  3.1 km/h 47 % 0.0 in /  0 mm
13:33 11.5 °F /  -11.4 °C 0.6 °F /  -17.4 °C 1014.8 in /  34361.1 hPa East 3.7 mph /  6 km/h 3.7 mph /  6 km/h 47 % 0.0 in /  0 mm
13:38 12.3 °F /  -10.9 °C 1.6 °F /  -16.9 °C 1014.8 in /  34361.1 hPa SSW 5.6 mph /  9 km/h 5.6 mph /  9 km/h 48 % 0.0 in /  0 mm
13:43 12.5 °F /  -10.8 °C 1.8 °F /  -16.8 °C 1014.8 in /  34361.1 hPa WSW 7.4 mph /  11.9 km/h 7.4 mph /  11.9 km/h 48 % 0.0 in /  0 mm
13:48 12.7 °F /  -10.7 °C 1.9 °F /  -16.7 °C 1014.8 in /  34361.1 hPa SSW 5.6 mph /  9 km/h 5.6 mph /  9 km/h 48 % 0.0 in /  0 mm
13:53 12.9 °F /  -10.6 °C 2.2 °F /  -16.6 °C 1014.8 in /  34361.1 hPa SW 1.9 mph /  3.1 km/h 1.9 mph /  3.1 km/h 48 % 0.0 in /  0 mm
13:58 13.3 °F /  -10.4 °C 2.8 °F /  -16.2 °C 1014.8 in /  34361.1 hPa SSW 7.9 mph /  12.7 km/h 7.9 mph /  12.7 km/h 49 % 0.0 in /  0 mm
14:03 13.7 °F /  -10.2 °C 3.2 °F /  -16 °C 1014.8 in /  34361.1 hPa WNW 11.1 mph /  17.9 km/h 11.1 mph /  17.9 km/h 49 % 0.0 in /  0 mm
14:08 13.7 °F /  -10.2 °C 3.2 °F /  -16 °C 1014.8 in /  34361.1 hPa WSW 6.9 mph /  11.1 km/h 6.9 mph /  11.1 km/h 49 % 0.0 in /  0 mm
14:13 13.7 °F /  -10.2 °C 3.4 °F /  -15.9 °C 1014.8 in /  34361.1 hPa WSW 14.8 mph /  23.8 km/h 14.8 mph /  23.8 km/h 50 % 0.0 in /  0 mm
14:18 13.6 °F /  -10.2 °C 3.4 °F /  -15.9 °C 1014.8 in /  34361.1 hPa West 5.8 mph /  9.3 km/h 5.8 mph /  9.3 km/h 50 % 0.0 in /  0 mm
14:23 13.3 °F /  -10.4 °C 3.1 °F /  -16.1 °C 1014.8 in /  34361.1 hPa WNW 5.6 mph /  9 km/h 5.6 mph /  9 km/h 50 % 0.0 in /  0 mm
14:28 13.3 °F /  -10.4 °C 3.1 °F /  -16.1 °C 1013.8 in /  34327.3 hPa NW 5.6 mph /  9 km/h 5.6 mph /  9 km/h 50 % 0.0 in /  0 mm
14:33 13.4 °F /  -10.3 °C 3.2 °F /  -16 °C 1013.8 in /  34327.3 hPa WNW 7.4 mph /  11.9 km/h 7.4 mph /  11.9 km/h 50 % 0.0 in /  0 mm
14:38 13.5 °F /  -10.3 °C 3.3 °F /  -15.9 °C 1013.8 in /  34327.3 hPa WNW 5.8 mph /  9.3 km/h 5.8 mph /  9.3 km/h 50 % 0.0 in /  0 mm
14:43 13.6 °F /  -10.2 °C 3.4 °F /  -15.9 °C 1013.8 in /  34327.3 hPa WSW 3.7 mph /  6 km/h 3.7 mph /  6 km/h 50 % 0.0 in /  0 mm
14:48 13.7 °F /  -10.2 °C 3.4 °F /  -15.9 °C 1013.8 in /  34327.3 hPa NW 11.4 mph /  18.3 km/h 11.4 mph /  18.3 km/h 50 % 0.0 in /  0 mm
14:53 13.7 °F /  -10.2 °C 3.7 °F /  -15.7 °C 1013.8 in /  34327.3 hPa West 9.3 mph /  15 km/h 9.3 mph /  15 km/h 51 % 0.0 in /  0 mm
14:58 14.0 °F /  -10 °C 4.0 °F /  -15.6 °C 1013.8 in /  34327.3 hPa West 7.4 mph /  11.9 km/h 7.4 mph /  11.9 km/h 51 % 0.0 in /  0 mm
15:03 14.1 °F /  -9.9 °C 4.1 °F /  -15.5 °C 1013.8 in /  34327.3 hPa North 5.6 mph /  9 km/h 5.6 mph /  9 km/h 51 % 0.0 in /  0 mm
15:08 14.1 °F /  -9.9 °C 4.1 °F /  -15.5 °C 1013.8 in /  34327.3 hPa SW 5.6 mph /  9 km/h 5.8 mph /  9.3 km/h 51 % 0.0 in /  0 mm
15:13 14.3 °F /  -9.8 °C 4.3 °F /  -15.4 °C 1013.8 in /  34327.3 hPa NW 9.3 mph /  15 km/h 9.3 mph /  15 km/h 51 % 0.0 in /  0 mm
15:18 14.2 °F /  -9.9 °C 4.2 °F /  -15.4 °C 1013.8 in /  34327.3 hPa WNW 9.3 mph /  15 km/h 9.3 mph /  15 km/h 51 % 0.0 in /  0 mm
15:23 14.4 °F /  -9.8 °C 4.4 °F /  -15.3 °C 1013.8 in /  34327.3 hPa WNW 5.6 mph /  9 km/h 5.6 mph /  9 km/h 51 % 0.0 in /  0 mm
15:28 14.3 °F /  -9.8 °C 4.3 °F /  -15.4 °C 1013.8 in /  34327.3 hPa WSW 9.7 mph /  15.6 km/h 9.7 mph /  15.6 km/h 51 % 0.0 in /  0 mm
15:33 14.3 °F /  -9.8 °C 4.3 °F /  -15.4 °C 1013.8 in /  34327.3 hPa West 5.6 mph /  9 km/h 5.6 mph /  9 km/h 51 % 0.0 in /  0 mm
15:38 14.3 °F /  -9.8 °C 4.3 °F /  -15.4 °C 1013.8 in /  34327.3 hPa West 9.3 mph /  15 km/h 9.3 mph /  15 km/h 51 % 0.0 in /  0 mm
15:43 14.4 °F /  -9.8 °C 4.4 °F /  -15.3 °C 1013.8 in /  34327.3 hPa West 9.3 mph /  15 km/h 9.5 mph /  15.3 km/h 51 % 0.0 in /  0 mm
15:48 14.6 °F /  -9.7 °C 4.6 °F /  -15.2 °C 1013.8 in /  34327.3 hPa SW 5.6 mph /  9 km/h 5.6 mph /  9 km/h 51 % 0.0 in /  0 mm
15:53 14.7 °F /  -9.6 °C 4.9 °F /  -15.1 °C 1013.8 in /  34327.3 hPa WNW 5.6 mph /  9 km/h 5.6 mph /  9 km/h 52 % 0.0 in /  0 mm
15:58 14.5 °F /  -9.7 °C 4.8 °F /  -15.1 °C 1013.8 in /  34327.3 hPa SW 9.3 mph /  15 km/h 9.3 mph /  15 km/h 52 % 0.0 in /  0 mm
16:03 14.3 °F /  -9.8 °C 4.6 °F /  -15.2 °C 1013.8 in /  34327.3 hPa West 9.3 mph /  15 km/h 9.3 mph /  15 km/h 52 % 0.0 in /  0 mm
16:08 14.2 °F /  -9.9 °C 4.5 °F /  -15.3 °C 1013.8 in /  34327.3 hPa SW 7.4 mph /  11.9 km/h 7.4 mph /  11.9 km/h 52 % 0.0 in /  0 mm
16:13 14.3 °F /  -9.8 °C 4.6 °F /  -15.2 °C 1012.8 in /  34293.4 hPa WSW 9.5 mph /  15.3 km/h 9.5 mph /  15.3 km/h 52 % 0.0 in /  0 mm
16:18 14.2 °F /  -9.9 °C 4.5 °F /  -15.3 °C 1012.8 in /  34293.4 hPa West 5.6 mph /  9 km/h 5.6 mph /  9 km/h 52 % 0.0 in /  0 mm
16:23 14.2 °F /  -9.9 °C 4.5 °F /  -15.3 °C 1012.8 in /  34293.4 hPa WNW 5.6 mph /  9 km/h 5.6 mph /  9 km/h 52 % 0.0 in /  0 mm
16:28 14.2 °F /  -9.9 °C 4.5 °F /  -15.3 °C 1013.8 in /  34327.3 hPa WSW 9.3 mph /  15 km/h 9.3 mph /  15 km/h 52 % 0.0 in /  0 mm
16:33 14.2 °F /  -9.9 °C 4.5 °F /  -15.3 °C 1013.8 in /  34327.3 hPa NNE 5.6 mph /  9 km/h 5.6 mph /  9 km/h 52 % 0.0 in /  0 mm
16:38 14.1 °F /  -9.9 °C 4.7 °F /  -15.2 °C 1013.8 in /  34327.3 hPa WNW 9.3 mph /  15 km/h 9.3 mph /  15 km/h 53 % 0.0 in /  0 mm
16:43 14.2 °F /  -9.9 °C 4.7 °F /  -15.2 °C 1013.8 in /  34327.3 hPa WNW 1.9 mph /  3.1 km/h   53 % 0.0 in /  0 mm
16:48 14.5 °F /  -9.7 °C 5.0 °F /  -15 °C 1013.8 in /  34327.3 hPa NW 5.6 mph /  9 km/h 5.6 mph /  9 km/h 53 % 0.0 in /  0 mm
16:53 14.5 °F /  -9.7 °C 5.0 °F /  -15 °C 1013.8 in /  34327.3 hPa WSW 3.7 mph /  6 km/h 3.7 mph /  6 km/h 53 % 0.0 in /  0 mm
16:58 14.7 °F /  -9.6 °C 5.2 °F /  -14.9 °C 1013.8 in /  34327.3 hPa SW 3.7 mph /  6 km/h 3.7 mph /  6 km/h 53 % 0.0 in /  0 mm
17:03 14.9 °F /  -9.5 °C 5.4 °F /  -14.8 °C 1013.8 in /  34327.3 hPa NNW 2.6 mph /  4.2 km/h 2.6 mph /  4.2 km/h 53 % 0.0 in /  0 mm
17:08 14.9 °F /  -9.5 °C 5.4 °F /  -14.8 °C 1013.8 in /  34327.3 hPa WSW 3.7 mph /  6 km/h 3.7 mph /  6 km/h 53 % 0.0 in /  0 mm
17:13 14.7 °F /  -9.6 °C 5.2 °F /  -14.9 °C 1012.8 in /  34293.4 hPa WSW 9.3 mph /  15 km/h 9.3 mph /  15 km/h 53 % 0.0 in /  0 mm
17:18 14.5 °F /  -9.7 °C 5.0 °F /  -15 °C 1012.8 in /  34293.4 hPa NNE 3.7 mph /  6 km/h 3.7 mph /  6 km/h 53 % 0.0 in /  0 mm
17:23 14.4 °F /  -9.8 °C 4.9 °F /  -15.1 °C 1012.8 in /  34293.4 hPa WSW 3.7 mph /  6 km/h 3.7 mph /  6 km/h 53 % 0.0 in /  0 mm
17:28 14.3 °F /  -9.8 °C 4.8 °F /  -15.1 °C 1012.8 in /  34293.4 hPa NW 3.7 mph /  6 km/h 3.7 mph /  6 km/h 53 % 0.0 in /  0 mm
17:33 14.2 °F /  -9.9 °C 5.0 °F /  -15 °C 1012.8 in /  34293.4 hPa SW 5.8 mph /  9.3 km/h 5.8 mph /  9.3 km/h 54 % 0.0 in /  0 mm
17:38 14.3 °F /  -9.8 °C 5.1 °F /  -14.9 °C 1012.8 in /  34293.4 hPa WSW 2.3 mph /  3.7 km/h 2.6 mph /  4.2 km/h 54 % 0.0 in /  0 mm
17:43 14.2 °F /  -9.9 °C 5.0 °F /  -15 °C 1012.8 in /  34293.4 hPa SSW 3.7 mph /  6 km/h 3.7 mph /  6 km/h 54 % 0.0 in /  0 mm
17:48 14.1 °F /  -9.9 °C 4.9 °F /  -15.1 °C 1012.8 in /  34293.4 hPa West 3.7 mph /  6 km/h 3.7 mph /  6 km/h 54 % 0.0 in /  0 mm
17:53 13.9 °F /  -10.1 °C 4.7 °F /  -15.2 °C 1012.8 in /  34293.4 hPa West 5.6 mph /  9 km/h 5.6 mph /  9 km/h 54 % 0.0 in /  0 mm
17:58 13.8 °F /  -10.1 °C 4.7 °F /  -15.2 °C 1012.8 in /  34293.4 hPa West 5.6 mph /  9 km/h 5.6 mph /  9 km/h 54 % 0.0 in /  0 mm
18:03 13.7 °F /  -10.2 °C 4.6 °F /  -15.2 °C 1012.8 in /  34293.4 hPa WNW 9.3 mph /  15 km/h 9.3 mph /  15 km/h 54 % 0.0 in /  0 mm
18:08 13.6 °F /  -10.2 °C 4.7 °F /  -15.2 °C 1012.8 in /  34293.4 hPa West 7.6 mph /  12.2 km/h 7.6 mph /  12.2 km/h 55 % 0.0 in /  0 mm
18:13 13.6 °F /  -10.2 °C 4.7 °F /  -15.2 °C 1012.8 in /  34293.4 hPa West 7.4 mph /  11.9 km/h 7.4 mph /  11.9 km/h 55 % 0.0 in /  0 mm
18:18 13.6 °F /  -10.2 °C 4.7 °F /  -15.2 °C 1012.8 in /  34293.4 hPa WNW 7.4 mph /  11.9 km/h 7.4 mph /  11.9 km/h 55 % 0.0 in /  0 mm
18:23 13.5 °F /  -10.3 °C 4.6 °F /  -15.2 °C 1012.8 in /  34293.4 hPa West 7.4 mph /  11.9 km/h 7.4 mph /  11.9 km/h 55 % 0.0 in /  0 mm
18:28 13.4 °F /  -10.3 °C 4.8 °F /  -15.1 °C 1012.8 in /  34293.4 hPa West 5.6 mph /  9 km/h 5.6 mph /  9 km/h 56 % 0.0 in /  0 mm
18:33 13.3 °F /  -10.4 °C 4.7 °F /  -15.2 °C 1012.8 in /  34293.4 hPa WSW 5.6 mph /  9 km/h 5.6 mph /  9 km/h 56 % 0.0 in /  0 mm
18:38 13.2 °F /  -10.4 °C 4.6 °F /  -15.2 °C 1012.8 in /  34293.4 hPa WSW 5.6 mph /  9 km/h 5.6 mph /  9 km/h 56 % 0.0 in /  0 mm
18:43 13.2 °F /  -10.4 °C 4.6 °F /  -15.2 °C 1013.8 in /  34327.3 hPa West 4.7 mph /  7.6 km/h 4.7 mph /  7.6 km/h 56 % 0.0 in /  0 mm
18:48 13.1 °F /  -10.5 °C 4.5 °F /  -15.3 °C 1013.8 in /  34327.3 hPa WSW 5.6 mph /  9 km/h 5.6 mph /  9 km/h 56 % 0.0 in /  0 mm
18:53 12.8 °F /  -10.7 °C 4.5 °F /  -15.3 °C 1013.8 in /  34327.3 hPa WSW 5.6 mph /  9 km/h 5.6 mph /  9 km/h 57 % 0.0 in /  0 mm
18:58 12.5 °F /  -10.8 °C 4.2 °F /  -15.4 °C 1013.8 in /  34327.3 hPa WNW 7.4 mph /  11.9 km/h 7.4 mph /  11.9 km/h 57 % 0.0 in /  0 mm
19:03 12.3 °F /  -10.9 °C 4.3 °F /  -15.4 °C 1013.8 in /  34327.3 hPa WNW 5.6 mph /  9 km/h 5.6 mph /  9 km/h 58 % 0.0 in /  0 mm
19:08 12.2 °F /  -11 °C 4.2 °F /  -15.4 °C 1013.8 in /  34327.3 hPa West 3.7 mph /  6 km/h 3.7 mph /  6 km/h 58 % 0.0 in /  0 mm
19:13 11.9 °F /  -11.2 °C 4.1 °F /  -15.5 °C 1013.8 in /  34327.3 hPa WSW 3.9 mph /  6.3 km/h 3.9 mph /  6.3 km/h 59 % 0.0 in /  0 mm
19:18 11.7 °F /  -11.3 °C 3.9 °F /  -15.6 °C 1013.8 in /  34327.3 hPa WSW 6.4 mph /  10.3 km/h 6.4 mph /  10.3 km/h 59 % 0.0 in /  0 mm
19:23 11.6 °F /  -11.3 °C 4.1 °F /  -15.5 °C 1013.8 in /  34327.3 hPa SW 5.6 mph /  9 km/h 5.6 mph /  9 km/h 60 % 0.0 in /  0 mm
19:28 11.5 °F /  -11.4 °C 4.2 °F /  -15.4 °C 1013.8 in /  34327.3 hPa WSW 5.3 mph /  8.5 km/h 5.3 mph /  8.5 km/h 61 % 0.0 in /  0 mm
19:33 11.3 °F /  -11.5 °C 4.1 °F /  -15.5 °C 1013.8 in /  34327.3 hPa WSW 3.9 mph /  6.3 km/h 3.9 mph /  6.3 km/h 61 % 0.0 in /  0 mm
19:38 11.2 °F /  -11.6 °C 3.9 °F /  -15.6 °C 1013.8 in /  34327.3 hPa West 5.6 mph /  9 km/h 5.6 mph /  9 km/h 61 % 0.0 in /  0 mm
19:43 11.1 °F /  -11.6 °C 4.1 °F /  -15.5 °C 1013.8 in /  34327.3 hPa WSW 5.6 mph /  9 km/h 5.6 mph /  9 km/h 62 % 0.0 in /  0 mm
19:48 11.0 °F /  -11.7 °C 4.0 °F /  -15.6 °C 1013.8 in /  34327.3 hPa West 6.1 mph /  9.8 km/h 6.1 mph /  9.8 km/h 62 % 0.0 in /  0 mm
19:53 11.0 °F /  -11.7 °C 4.2 °F /  -15.4 °C 1013.8 in /  34327.3 hPa West 4.2 mph /  6.8 km/h 4.2 mph /  6.8 km/h 63 % 0.0 in /  0 mm
19:58 10.9 °F /  -11.7 °C 4.1 °F /  -15.5 °C 1013.8 in /  34327.3 hPa WSW 5.6 mph /  9 km/h 5.6 mph /  9 km/h 63 % 0.0 in /  0 mm
20:03 10.7 °F /  -11.8 °C 3.9 °F /  -15.6 °C 1013.8 in /  34327.3 hPa WSW 3.7 mph /  6 km/h 3.7 mph /  6 km/h 63 % 0.0 in /  0 mm
20:08 10.6 °F /  -11.9 °C 4.1 °F /  -15.5 °C 1013.8 in /  34327.3 hPa SW 3.7 mph /  6 km/h 3.7 mph /  6 km/h 64 % 0.0 in /  0 mm
20:13 10.6 °F /  -11.9 °C 4.1 °F /  -15.5 °C 1013.8 in /  34327.3 hPa SW 3.7 mph /  6 km/h 3.7 mph /  6 km/h 64 % 0.0 in /  0 mm
20:18 10.6 °F /  -11.9 °C 4.1 °F /  -15.5 °C 1013.8 in /  34327.3 hPa SW 5.6 mph /  9 km/h 5.6 mph /  9 km/h 64 % 0.0 in /  0 mm
20:23 10.6 °F /  -11.9 °C 4.1 °F /  -15.5 °C 1013.8 in /  34327.3 hPa SSW 5.0 mph /  8 km/h 5.0 mph /  8 km/h 64 % 0.0 in /  0 mm
20:28 10.6 °F /  -11.9 °C 4.1 °F /  -15.5 °C 1012.8 in /  34293.4 hPa WSW 5.6 mph /  9 km/h 5.6 mph /  9 km/h 64 % 0.0 in /  0 mm
20:33 10.6 °F /  -11.9 °C 4.1 °F /  -15.5 °C 1012.8 in /  34293.4 hPa SSW 5.8 mph /  9.3 km/h 5.8 mph /  9.3 km/h 64 % 0.0 in /  0 mm
20:38 10.6 °F /  -11.9 °C 4.1 °F /  -15.5 °C 1012.8 in /  34293.4 hPa WSW 9.3 mph /  15 km/h 9.3 mph /  15 km/h 64 % 0.0 in /  0 mm
20:43 10.8 °F /  -11.8 °C 4.3 °F /  -15.4 °C 1012.8 in /  34293.4 hPa WSW 7.4 mph /  11.9 km/h 7.4 mph /  11.9 km/h 64 % 0.0 in /  0 mm
20:48 11.0 °F /  -11.7 °C 4.4 °F /  -15.3 °C 1012.8 in /  34293.4 hPa WSW 7.4 mph /  11.9 km/h 7.4 mph /  11.9 km/h 64 % 0.0 in /  0 mm
20:53 11.0 °F /  -11.7 °C 4.4 °F /  -15.3 °C 1012.8 in /  34293.4 hPa SW 5.6 mph /  9 km/h 5.6 mph /  9 km/h 64 % 0.0 in /  0 mm
20:58 11.0 °F /  -11.7 °C 4.4 °F /  -15.3 °C 1012.8 in /  34293.4 hPa WSW 5.6 mph /  9 km/h 5.6 mph /  9 km/h 64 % 0.0 in /  0 mm
21:03 11.0 °F /  -11.7 °C 4.4 °F /  -15.3 °C 1012.8 in /  34293.4 hPa WSW 3.7 mph /  6 km/h 3.7 mph /  6 km/h 64 % 0.0 in /  0 mm
21:08 11.0 °F /  -11.7 °C 4.4 °F /  -15.3 °C 1012.8 in /  34293.4 hPa West 3.7 mph /  6 km/h 3.7 mph /  6 km/h 64 % 0.0 in /  0 mm
21:13 11.2 °F /  -11.6 °C 4.6 °F /  -15.2 °C 1012.8 in /  34293.4 hPa West 3.7 mph /  6 km/h 3.7 mph /  6 km/h 64 % 0.0 in /  0 mm
21:18 11.3 °F /  -11.5 °C 4.5 °F /  -15.3 °C 1012.8 in /  34293.4 hPa West 7.4 mph /  11.9 km/h 7.4 mph /  11.9 km/h 63 % 0.0 in /  0 mm
21:23 11.8 °F /  -11.2 °C 5.0 °F /  -15 °C 1012.8 in /  34293.4 hPa WSW 7.4 mph /  11.9 km/h 7.4 mph /  11.9 km/h 63 % 0.0 in /  0 mm
21:28 12.1 °F /  -11.1 °C 5.3 °F /  -14.8 °C 1011.7 in /  34256.2 hPa WSW 5.6 mph /  9 km/h 5.6 mph /  9 km/h 63 % 0.0 in /  0 mm
21:33 12.1 °F /  -11.1 °C 5.3 °F /  -14.8 °C 1011.7 in /  34256.2 hPa SW 5.6 mph /  9 km/h 5.6 mph /  9 km/h 63 % 0.0 in /  0 mm
21:38 12.1 °F /  -11.1 °C 5.3 °F /  -14.8 °C 1011.7 in /  34256.2 hPa NW 5.6 mph /  9 km/h 5.6 mph /  9 km/h 63 % 0.0 in /  0 mm
21:43 12.2 °F /  -11 °C 5.3 °F /  -14.8 °C 1011.7 in /  34256.2 hPa WNW 1.9 mph /  3.1 km/h   63 % 0.0 in /  0 mm
21:48 12.2 °F /  -11 °C 5.1 °F /  -14.9 °C 1011.7 in /  34256.2 hPa WSW 5.6 mph /  9 km/h 5.6 mph /  9 km/h 62 % 0.0 in /  0 mm
21:53 12.2 °F /  -11 °C 5.1 °F /  -14.9 °C 1011.7 in /  34256.2 hPa WSW 5.6 mph /  9 km/h 5.6 mph /  9 km/h 62 % 0.0 in /  0 mm
21:58 12.3 °F /  -10.9 °C 5.2 °F /  -14.9 °C 1012.8 in /  34293.4 hPa West 7.4 mph /  11.9 km/h 7.4 mph /  11.9 km/h 62 % 0.0 in /  0 mm
22:03 12.3 °F /  -10.9 °C 5.2 °F /  -14.9 °C 1012.8 in /  34293.4 hPa WNW 6.1 mph /  9.8 km/h 6.1 mph /  9.8 km/h 62 % 0.0 in /  0 mm
22:08 12.3 °F /  -10.9 °C 5.0 °F /  -15 °C 1012.8 in /  34293.4 hPa WNW 5.6 mph /  9 km/h 5.6 mph /  9 km/h 61 % 0.0 in /  0 mm
22:13 12.3 °F /  -10.9 °C 5.0 °F /  -15 °C 1012.8 in /  34293.4 hPa WSW 3.7 mph /  6 km/h 3.7 mph /  6 km/h 61 % 0.0 in /  0 mm
22:18 12.3 °F /  -10.9 °C 5.0 °F /  -15 °C 1012.8 in /  34293.4 hPa WSW 3.9 mph /  6.3 km/h 3.9 mph /  6.3 km/h 61 % 0.0 in /  0 mm
22:23 12.1 °F /  -11.1 °C 4.8 °F /  -15.1 °C 1012.8 in /  34293.4 hPa NNE 3.2 mph /  5.1 km/h 3.2 mph /  5.1 km/h 61 % 0.0 in /  0 mm
22:28 11.7 °F /  -11.3 °C 4.4 °F /  -15.3 °C 1011.7 in /  34256.2 hPa ENE 3.7 mph /  6 km/h 3.9 mph /  6.3 km/h 61 % 0.0 in /  0 mm
22:33 11.6 °F /  -11.3 °C 4.3 °F /  -15.4 °C 1011.7 in /  34256.2 hPa NNE 1.9 mph /  3.1 km/h   61 % 0.0 in /  0 mm
22:38 11.5 °F /  -11.4 °C 4.2 °F /  -15.4 °C 1011.7 in /  34256.2 hPa NNE 5.6 mph /  9 km/h 5.6 mph /  9 km/h 61 % 0.0 in /  0 mm
22:43 11.3 °F /  -11.5 °C 4.1 °F /  -15.5 °C 1011.7 in /  34256.2 hPa ENE 1.9 mph /  3.1 km/h   61 % 0.0 in /  0 mm
22:48 11.3 °F /  -11.5 °C 4.1 °F /  -15.5 °C 1011.7 in /  34256.2 hPa NNW 1.9 mph /  3.1 km/h   61 % 0.0 in /  0 mm
22:53 11.2 °F /  -11.6 °C 3.9 °F /  -15.6 °C 1011.7 in /  34256.2 hPa NW 1.9 mph /  3.1 km/h   61 % 0.0 in /  0 mm
22:58 11.1 °F /  -11.6 °C 3.8 °F /  -15.7 °C 1011.7 in /  34256.2 hPa NNE 3.7 mph /  6 km/h 3.7 mph /  6 km/h 61 % 0.0 in /  0 mm
23:03 11.1 °F /  -11.6 °C 3.8 °F /  -15.7 °C 1011.7 in /  34256.2 hPa NNE 2.3 mph /  3.7 km/h   61 % 0.0 in /  0 mm
23:08 11.0 °F /  -11.7 °C 3.8 °F /  -15.7 °C 1011.7 in /  34256.2 hPa West 1.9 mph /  3.1 km/h   61 % 0.0 in /  0 mm
23:13 11.0 °F /  -11.7 °C 3.8 °F /  -15.7 °C 1011.7 in /  34256.2 hPa Calm     61 % 0.0 in /  0 mm
23:18 10.9 °F /  -11.7 °C 3.7 °F /  -15.7 °C 1011.7 in /  34256.2 hPa WSW 3.7 mph /  6 km/h 3.7 mph /  6 km/h 61 % 0.0 in /  0 mm
23:23 10.7 °F /  -11.8 °C 3.5 °F /  -15.8 °C 1011.7 in /  34256.2 hPa WSW 1.9 mph /  3.1 km/h   61 % 0.0 in /  0 mm
23:28 10.8 °F /  -11.8 °C 3.6 °F /  -15.8 °C 1012.8 in /  34293.4 hPa ENE 1.9 mph /  3.1 km/h   61 % 0.0 in /  0 mm
23:33 10.7 °F /  -11.8 °C 3.5 °F /  -15.8 °C 1012.8 in /  34293.4 hPa ENE 1.9 mph /  3.1 km/h   61 % 0.0 in /  0 mm
23:38 10.9 °F /  -11.7 °C 3.9 °F /  -15.6 °C 1012.8 in /  34293.4 hPa ENE 5.6 mph /  9 km/h 5.6 mph /  9 km/h 62 % 0.0 in /  0 mm
23:43 10.7 °F /  -11.8 °C 3.7 °F /  -15.7 °C 1012.8 in /  34293.4 hPa NE 3.7 mph /  6 km/h 3.7 mph /  6 km/h 62 % 0.0 in /  0 mm
23:48 10.6 °F /  -11.9 °C 3.4 °F /  -15.9 °C 1012.8 in /  34293.4 hPa WNW 3.7 mph /  6 km/h 3.7 mph /  6 km/h 61 % 0.0 in /  0 mm
23:53 10.5 °F /  -11.9 °C 3.5 °F /  -15.8 °C 1012.8 in /  34293.4 hPa NW 2.6 mph /  4.2 km/h 2.6 mph /  4.2 km/h 62 % 0.0 in /  0 mm
23:58 10.4 °F /  -12 °C 3.4 °F /  -15.9 °C 1012.8 in /  34293.4 hPa WNW 3.7 mph /  6 km/h 3.7 mph /  6 km/h 62 % 0.0 in /  0 mm
Meteo Sesrovires
Elogis d' Weather Underground - 1.75 mb

Guio original per  Jim McMurry - jmcmurry@mwt.net Adaptat per a la plantilla per  Wim van der Kuil - Leuven-Template.eu

Trobareu la nostra informacio del temps tambe a:

Weather Underground

AWEKAS